Time;durP1;ratioP1;P1;durP2;ratioP2;P2;SDS_P1;SDS_P2;PMS_P1;PMS_P2;Temp;Humidity;BMP_temperature;BMP_pressure;BME280_temperature;BME280_humidity;BME280_pressure;Samples;Min_cycle;Max_cycle;Signal;HPM_P1;HPM_P2
2022/06/20 00:02:22;;;;;;;6.68;1.00;;;13.20;99.90;;;;;;5047718;28;20483;-69
2022/06/20 00:04:50;;;;;;;6.47;1.10;;;13.20;99.90;;;;;;5044652;28;20040;-69
2022/06/20 00:07:16;;;;;;;7.75;1.05;;;13.20;99.90;;;;;;5030777;28;20029;-69
2022/06/20 00:09:42;;;;;;;4.35;1.00;;;13.20;99.90;;;;;;5030812;28;20124;-69
2022/06/20 00:12:15;;;;;;;7.55;1.63;;;13.10;99.90;;;;;;5047846;28;20045;-69
2022/06/20 00:14:41;;;;;;;3.65;0.75;;;13.10;99.90;;;;;;5024503;28;20048;-69
2022/06/20 00:17:11;;;;;;;3.63;1.05;;;13.00;99.90;;;;;;5027084;28;20338;-69
2022/06/20 00:19:37;;;;;;;5.90;1.38;;;12.90;99.90;;;;;;5028811;28;20037;-69
2022/06/20 00:22:03;;;;;;;5.35;0.90;;;12.90;99.90;;;;;;5030163;28;20067;-69
2022/06/20 00:24:30;;;;;;;5.13;1.25;;;12.80;99.90;;;;;;5045400;28;20381;-69
2022/06/20 00:26:56;;;;;;;5.32;1.00;;;12.80;99.90;;;;;;5046414;28;20116;-69
2022/06/20 00:29:22;;;;;;;8.45;1.48;;;12.70;99.90;;;;;;5027910;28;20052;-69
2022/06/20 00:31:48;;;;;;;7.53;1.35;;;12.70;99.90;;;;;;5030081;28;20405;-69
2022/06/20 00:34:13;;;;;;;5.10;1.00;;;12.70;99.90;;;;;;5046734;28;20477;-69
2022/06/20 00:36:39;;;;;;;7.50;1.30;;;12.60;99.90;;;;;;5032637;28;20036;-69
2022/06/20 00:39:05;;;;;;;5.22;1.25;;;12.60;99.90;;;;;;5033060;28;20048;-69
2022/06/20 00:41:34;;;;;;;8.95;1.27;;;12.60;99.90;;;;;;5034670;28;20500;-69
2022/06/20 00:44:01;;;;;;;6.25;1.25;;;12.60;99.90;;;;;;5030195;28;20068;-69
2022/06/20 00:46:38;;;;;;;5.90;1.17;;;12.60;99.90;;;;;;5034863;28;20051;-69
2022/06/20 00:49:12;;;;;;;5.63;1.45;;;12.60;99.90;;;;;;5049803;28;20055;-69
2022/06/20 00:51:58;;;;;;;5.43;1.13;;;12.60;99.90;;;;;;5051016;28;20046;-69
2022/06/20 00:54:39;;;;;;;6.57;1.55;;;12.60;99.90;;;;;;5032714;28;20393;-69
2022/06/20 00:57:37;;;;;;;5.95;1.48;;;12.60;99.90;;;;;;5034369;28;20048;-69
2022/06/20 01:00:08;;;;;;;5.78;1.40;;;12.60;99.90;;;;;;5046048;28;20049;-69
2022/06/20 01:02:38;;;;;;;8.02;1.55;;;12.70;99.90;;;;;;5028042;28;20337;-69
2022/06/20 01:05:11;;;;;;;5.15;1.13;;;12.70;99.90;;;;;;5027913;28;20061;-69
2022/06/20 01:07:50;;;;;;;6.45;1.30;;;12.70;99.90;;;;;;5030756;28;20049;-69
2022/06/20 01:10:17;;;;;;;7.55;1.50;;;12.70;99.90;;;;;;5024858;28;20046;-69
2022/06/20 01:13:05;;;;;;;5.63;1.20;;;12.70;99.90;;;;;;5031334;28;20055;-69
2022/06/20 01:15:37;;;;;;;7.60;1.35;;;12.70;99.90;;;;;;5012381;28;20059;-69
2022/06/20 01:18:10;;;;;;;5.57;1.42;;;12.80;99.90;;;;;;5006198;28;20432;-69
2022/06/20 01:20:37;;;;;;;5.03;1.23;;;12.70;99.90;;;;;;5028984;28;20109;-69
2022/06/20 01:23:27;;;;;;;8.00;1.50;;;12.80;99.90;;;;;;5024522;28;20058;-69
2022/06/20 01:26:03;;;;;;;10.88;1.80;;;12.70;99.90;;;;;;5027789;28;20056;-69
2022/06/20 01:28:34;;;;;;;7.63;1.88;;;12.80;99.90;;;;;;5020262;28;20033;-69
2022/06/20 01:31:00;;;;;;;7.75;1.48;;;12.70;99.90;;;;;;5030880;28;20052;-69
2022/06/20 01:33:26;;;;;;;7.22;1.65;;;12.70;99.90;;;;;;5031060;28;20037;-69
2022/06/20 01:38:39;;;;;;;9.23;1.45;;;12.70;99.90;;;;;;5029317;28;20137;-69
2022/06/20 01:43:52;;;;;;;7.47;1.83;;;12.70;99.90;;;;;;5026561;28;20112;-69
2022/06/20 01:46:19;;;;;;;6.60;1.80;;;12.70;99.90;;;;;;5028083;28;20037;-69
2022/06/20 01:48:50;;;;;;;6.93;1.77;;;12.60;99.90;;;;;;5031637;28;20047;-69
2022/06/20 01:51:21;;;;;;;7.35;1.95;;;12.60;99.90;;;;;;5028848;28;20140;-69
2022/06/20 01:53:49;;;;;;;8.55;1.80;;;12.60;99.90;;;;;;5028097;28;20053;-69
2022/06/20 01:56:16;;;;;;;8.05;1.90;;;12.60;99.90;;;;;;5029959;28;20053;-69
2022/06/20 01:58:57;;;;;;;3.75;1.33;;;12.50;99.90;;;;;;5025373;28;20037;-69
2022/06/20 02:01:24;;;;;;;12.13;2.45;;;12.50;99.90;;;;;;5025493;28;20435;-69
2022/06/20 02:03:49;;;;;;;10.25;2.22;;;12.50;99.90;;;;;;5022860;28;20065;-69
2022/06/20 02:06:17;;;;;;;5.97;1.58;;;12.40;99.90;;;;;;5029823;28;20571;-69
2022/06/20 02:08:50;;;;;;;5.47;1.77;;;12.40;99.90;;;;;;5026575;28;20041;-69
2022/06/20 02:11:24;;;;;;;6.47;1.50;;;12.30;99.90;;;;;;5029867;28;20113;-69
2022/06/20 02:13:54;;;;;;;8.40;1.92;;;12.30;99.90;;;;;;5026297;28;20065;-69
2022/06/20 02:16:22;;;;;;;8.77;1.98;;;12.30;99.90;;;;;;5028901;28;20041;-69
2022/06/20 02:18:51;;;;;;;7.53;1.52;;;12.20;99.90;;;;;;5026807;28;20179;-69
2022/06/20 02:21:23;;;;;;;9.70;2.15;;;12.30;99.90;;;;;;5027816;28;20053;-69
2022/06/20 02:23:55;;;;;;;7.70;1.80;;;12.30;99.90;;;;;;5028171;28;20049;-69
2022/06/20 02:26:22;;;;;;;7.18;1.88;;;12.20;99.90;;;;;;5030552;28;20037;-69
2022/06/20 02:29:21;;;;;;;6.72;1.63;;;12.20;99.90;;;;;;5026655;28;20151;-69
2022/06/20 02:32:07;;;;;;;7.15;1.63;;;12.10;99.90;;;;;;5029013;28;20102;-69
2022/06/20 02:34:34;;;;;;;8.43;1.80;;;12.00;99.90;;;;;;5011255;28;20046;-69
2022/06/20 02:37:03;;;;;;;7.22;1.83;;;12.00;99.90;;;;;;5030488;28;20037;-69
2022/06/20 02:39:30;;;;;;;7.93;1.80;;;11.90;99.90;;;;;;5027965;28;20397;-69
2022/06/20 02:42:01;;;;;;;8.05;1.58;;;11.90;99.90;;;;;;5012933;28;20045;-69
2022/06/20 02:44:29;;;;;;;6.72;1.40;;;11.80;99.90;;;;;;5024761;28;20120;-69
2022/06/20 02:46:55;;;;;;;7.15;1.80;;;11.70;99.90;;;;;;5025670;28;20049;-69
2022/06/20 02:49:25;;;;;;;6.68;2.00;;;11.70;99.90;;;;;;5027862;28;20042;-69
2022/06/20 02:51:53;;;;;;;8.40;2.40;;;11.70;99.90;;;;;;5029139;28;20052;-69
2022/06/20 02:54:27;;;;;;;10.55;1.80;;;11.60;99.90;;;;;;5026825;28;20098;-69
2022/06/20 02:57:01;;;;;;;9.77;2.50;;;11.60;99.90;;;;;;5029225;28;20033;-69
2022/06/20 02:59:29;;;;;;;;;;;11.50;99.90;;;;;;5028092;28;20104;-69
2022/06/20 03:02:17;;;;;;;9.48;2.00;;;11.40;99.90;;;;;;5029112;28;19925;-69
2022/06/20 03:04:45;;;;;;;6.38;1.67;;;11.40;99.90;;;;;;5026551;28;20529;-69
2022/06/20 03:07:25;;;;;;;12.90;2.38;;;11.30;99.90;;;;;;5028589;28;20109;-69
2022/06/20 03:09:57;;;;;;;7.63;1.92;;;11.30;99.90;;;;;;5025307;28;20048;-69
2022/06/20 03:12:23;;;;;;;7.20;2.15;;;11.30;99.90;;;;;;5006709;28;20088;-69
2022/06/20 03:14:57;;;;;;;12.45;2.30;;;11.20;99.90;;;;;;5025173;28;20057;-69
2022/06/20 03:17:23;;;;;;;7.15;2.33;;;11.20;99.90;;;;;;5030896;28;20041;-69
2022/06/20 03:19:53;;;;;;;9.10;2.50;;;11.20;99.90;;;;;;5024228;28;20045;-69
2022/06/20 03:22:21;;;;;;;7.45;2.10;;;11.20;99.90;;;;;;5025611;28;20049;-69
2022/06/20 03:24:51;;;;;;;6.07;2.47;;;11.20;99.90;;;;;;5029043;28;20065;-69
2022/06/20 03:27:21;;;;;;;6.82;2.42;;;11.10;99.90;;;;;;5025945;28;20575;-69
2022/06/20 03:29:54;;;;;;;7.65;2.33;;;11.10;99.90;;;;;;5025221;28;20041;-69
2022/06/20 03:32:21;;;;;;;7.57;2.72;;;11.10;99.90;;;;;;5027833;28;20041;-69
2022/06/20 03:34:47;;;;;;;6.22;2.17;;;11.10;99.90;;;;;;5027503;28;20041;-69
2022/06/20 03:37:12;;;;;;;6.68;2.25;;;11.00;99.90;;;;;;5026882;28;20056;-69
2022/06/20 03:39:38;;;;;;;7.25;2.17;;;11.00;99.90;;;;;;5026714;28;20052;-69
2022/06/20 03:42:04;;;;;;;8.05;2.80;;;11.00;99.90;;;;;;5030473;28;20049;-69
2022/06/20 03:44:35;;;;;;;6.57;2.38;;;11.00;99.90;;;;;;5028031;28;20057;-69
2022/06/20 03:47:24;;;;;;;6.00;1.90;;;10.90;99.90;;;;;;5025560;28;20065;-69
2022/06/20 03:50:09;;;;;;;6.63;1.80;;;10.90;99.90;;;;;;5027083;28;20119;-69
2022/06/20 03:52:46;;;;;;;6.45;2.17;;;11.00;99.90;;;;;;5020917;28;20069;-69
2022/06/20 03:55:40;;;;;;;8.35;2.30;;;11.00;99.90;;;;;;5026001;28;20045;-69
2022/06/20 03:58:35;;;;;;;5.55;2.28;;;11.10;99.90;;;;;;5026056;28;20125;-69
2022/06/20 04:01:12;;;;;;;5.70;1.83;;;11.10;99.90;;;;;;5026231;28;20065;-69
2022/06/20 04:03:51;;;;;;;9.68;2.42;;;11.10;99.90;;;;;;5018796;28;20186;-69
2022/06/20 04:06:31;;;;;;;4.35;2.28;;;11.10;99.90;;;;;;5029738;28;20048;-69
2022/06/20 04:12:06;;;;;;;10.25;2.30;;;11.20;99.90;;;;;;5030090;28;20045;-69
2022/06/20 04:14:46;;;;;;;7.45;2.13;;;11.10;99.90;;;;;;5032972;28;20497;-69
2022/06/20 04:20:40;;;;;;;5.30;2.13;;;11.20;99.90;;;;;;5028716;28;20041;-69
2022/06/20 04:23:12;;;;;;;7.80;2.28;;;11.30;99.90;;;;;;5034828;28;20084;-69
2022/06/20 04:25:57;;;;;;;10.77;2.50;;;11.40;99.90;;;;;;5033687;28;20037;-69
2022/06/20 04:28:31;;;;;;;8.27;2.92;;;11.50;99.90;;;;;;5033674;28;20412;-69
2022/06/20 04:31:03;;;;;;;5.93;2.20;;;11.50;99.90;;;;;;5052742;28;20116;-69
2022/06/20 04:33:41;;;;;;;9.10;2.50;;;11.60;99.90;;;;;;5032513;28;20063;-69
2022/06/20 04:36:44;;;;;;;6.55;2.60;;;11.70;99.90;;;;;;5032685;28;20057;-69
2022/06/20 04:39:20;;;;;;;8.40;2.65;;;11.80;99.90;;;;;;5015093;28;20057;-69
2022/06/20 04:42:04;;;;;;;9.40;2.85;;;12.00;99.90;;;;;;5051332;28;20048;-69
2022/06/20 04:45:00;;;;;;;6.60;2.35;;;12.20;99.90;;;;;;5015984;28;20076;-69
2022/06/20 04:47:38;;;;;;;4.85;1.95;;;12.30;99.90;;;;;;5034214;28;20037;-69
2022/06/20 04:50:06;;;;;;;9.27;2.03;;;12.50;99.90;;;;;;5044289;28;20041;-69
2022/06/20 04:52:32;;;;;;;7.28;2.28;;;12.60;99.90;;;;;;5049732;28;20047;-69
2022/06/20 04:54:59;;;;;;;6.03;2.10;;;12.80;99.90;;;;;;5030665;28;20048;-69
2022/06/20 04:57:27;;;;;;;6.88;2.20;;;12.90;99.90;;;;;;5032897;28;20797;-69
2022/06/20 04:59:59;;;;;;;11.45;2.90;;;12.90;99.90;;;;;;5033232;28;20049;-69
2022/06/20 05:02:25;;;;;;;6.53;2.13;;;13.00;99.90;;;;;;5030453;28;20053;-69
2022/06/20 05:04:55;;;;;;;9.90;2.22;;;13.50;99.90;;;;;;5049167;28;20048;-69
2022/06/20 05:07:26;;;;;;;6.93;2.03;;;13.90;99.90;;;;;;5047977;28;20643;-69
2022/06/20 05:10:06;;;;;;;5.70;2.10;;;14.10;99.90;;;;;;5032589;28;20488;-69
2022/06/20 05:12:39;;;;;;;6.05;1.95;;;14.20;99.90;;;;;;5013290;28;20053;-69
2022/06/20 05:15:44;;;;;;;5.65;1.83;;;14.20;99.90;;;;;;5043613;28;20045;-69
2022/06/20 05:18:21;;;;;;;5.70;1.77;;;14.30;99.90;;;;;;5004670;28;20088;-69
2022/06/20 05:20:48;;;;;;;8.88;1.92;;;14.30;99.90;;;;;;5047526;28;20065;-69
2022/06/20 05:23:20;;;;;;;8.23;1.63;;;14.20;99.90;;;;;;5032388;28;20132;-69
2022/06/20 05:25:46;;;;;;;5.97;1.85;;;14.20;99.90;;;;;;5048913;28;20049;-69
2022/06/20 05:28:19;;;;;;;9.55;2.55;;;14.10;99.90;;;;;;5030844;28;20476;-69
2022/06/20 05:30:46;;;;;;;7.78;2.08;;;14.10;99.90;;;;;;5032489;28;20037;-69
2022/06/20 05:33:24;;;;;;;9.40;1.70;;;14.10;99.90;;;;;;5031173;28;20546;-69
2022/06/20 05:36:18;;;;;;;11.38;2.45;;;14.10;99.90;;;;;;5028734;28;20055;-69
2022/06/20 05:38:48;;;;;;;7.05;2.05;;;14.20;99.90;;;;;;5032267;28;20564;-69
2022/06/20 05:41:15;;;;;;;6.70;2.20;;;14.20;99.90;;;;;;5047479;28;20044;-69
2022/06/20 05:43:42;;;;;;;6.90;1.95;;;14.30;99.90;;;;;;5051753;28;20048;-69
2022/06/20 05:46:13;;;;;;;8.40;2.30;;;14.40;99.90;;;;;;5044856;28;20053;-69
2022/06/20 05:48:47;;;;;;;8.77;2.50;;;14.40;99.90;;;;;;5025006;28;20038;-69
2022/06/20 05:51:15;;;;;;;7.70;2.35;;;14.40;99.90;;;;;;5030401;28;20052;-70
2022/06/20 05:53:58;;;;;;;8.60;2.30;;;14.60;99.90;;;;;;5029975;28;20130;-69
2022/06/20 05:56:24;;;;;;;7.45;2.20;;;14.70;99.90;;;;;;5026530;28;20060;-69
2022/06/20 05:58:51;;;;;;;9.68;2.13;;;14.80;99.90;;;;;;5047734;28;20460;-69
2022/06/20 06:01:25;;;;;;;9.65;2.20;;;15.00;99.90;;;;;;5024970;28;20089;-69
2022/06/20 06:04:24;;;;;;;6.93;2.22;;;15.00;99.90;;;;;;5028383;28;20421;-69
2022/06/20 06:07:14;;;;;;;9.27;2.45;;;15.00;99.90;;;;;;5028036;28;20061;-69
2022/06/20 06:09:51;;;;;;;10.98;3.00;;;15.00;99.90;;;;;;5040462;28;20042;-69
2022/06/20 06:12:40;;;;;;;7.90;2.28;;;15.10;99.90;;;;;;5044529;28;20036;-69
2022/06/20 06:15:28;;;;;;;8.45;2.70;;;15.20;99.90;;;;;;5026462;28;20755;-69
2022/06/20 06:18:00;;;;;;;8.30;2.40;;;15.30;99.90;;;;;;5019280;28;20045;-69
2022/06/20 06:20:27;;;;;;;10.20;2.45;;;15.50;99.90;;;;;;5023201;28;20485;-69
2022/06/20 06:23:03;;;;;;;11.30;2.50;;;15.60;99.90;;;;;;5038632;28;20389;-69
2022/06/20 06:25:34;;;;;;;9.95;2.20;;;15.70;99.90;;;;;;5042002;28;20382;-69
2022/06/20 06:28:05;;;;;;;11.52;2.60;;;15.80;99.90;;;;;;5024658;28;20049;-69
2022/06/20 06:31:02;;;;;;;10.10;2.30;;;15.80;99.90;;;;;;5030548;28;20137;-68
2022/06/20 06:33:41;;;;;;;11.80;2.53;;;15.90;99.90;;;;;;5047731;28;20106;-68
2022/06/20 06:36:13;;;;;;;9.60;2.70;;;16.00;99.90;;;;;;5029557;28;20057;-69
2022/06/20 06:38:48;;;;;;;13.50;2.80;;;16.10;99.90;;;;;;5045329;28;20098;-69
2022/06/20 06:41:33;;;;;;;12.52;3.13;;;16.30;99.90;;;;;;5030714;28;20338;-69
2022/06/20 06:44:00;;;;;;;12.32;2.97;;;16.30;99.90;;;;;;5026468;28;21432;-68
2022/06/20 06:46:38;;;;;;;7.80;2.40;;;16.30;99.90;;;;;;5048008;28;20080;-68
2022/06/20 06:49:21;;;;;;;9.20;2.53;;;16.30;99.90;;;;;;5047862;28;20045;-69
2022/06/20 06:52:08;;;;;;;5.93;2.05;;;16.20;99.90;;;;;;5031095;28;20041;-68
2022/06/20 06:54:43;;;;;;;8.68;2.50;;;16.20;99.90;;;;;;5027566;28;20044;-68
2022/06/20 06:57:14;;;;;;;10.05;2.30;;;16.20;99.90;;;;;;5048603;28;20045;-69
2022/06/20 06:59:46;;;;;;;8.43;2.05;;;16.20;99.90;;;;;;5046412;28;20044;-68
2022/06/20 07:02:19;;;;;;;7.55;2.10;;;16.30;99.90;;;;;;5045746;28;20194;-68
2022/06/20 07:04:55;;;;;;;7.07;2.20;;;16.50;99.90;;;;;;5025439;28;20060;-68
2022/06/20 07:07:32;;;;;;;7.80;2.10;;;16.80;99.90;;;;;;5047152;28;20571;-69
2022/06/20 07:09:58;;;;;;;6.30;2.15;;;17.00;99.90;;;;;;5044238;28;20076;-68
2022/06/20 07:12:24;;;;;;;6.15;1.50;;;17.00;99.90;;;;;;5030861;28;20711;-68
2022/06/20 07:15:16;;;;;;;7.47;2.25;;;17.00;99.90;;;;;;5030465;28;20084;-68
2022/06/20 07:17:54;;;;;;;5.18;1.92;;;16.80;99.60;;;;;;5031339;28;20089;-69
2022/06/20 07:20:24;;;;;;;8.35;1.63;;;17.00;99.00;;;;;;5021796;28;20127;-69
2022/06/20 07:22:50;;;;;;;9.95;1.95;;;17.10;99.40;;;;;;5028753;28;20060;-69
2022/06/20 07:25:30;;;;;;;9.82;2.00;;;17.20;99.50;;;;;;5030721;28;20056;-68
2022/06/20 07:28:34;;;;;;;8.07;1.88;;;17.40;98.90;;;;;;5047726;28;20526;-68
2022/06/20 07:31:22;;;;;;;7.40;1.67;;;17.50;96.90;;;;;;5046157;28;20043;-68
2022/06/20 07:34:13;;;;;;;7.50;1.60;;;17.70;97.20;;;;;;5028689;28;20045;-69
2022/06/20 07:36:55;;;;;;;8.52;2.00;;;17.70;95.80;;;;;;5010582;28;20404;-69
2022/06/20 07:39:36;;;;;;;7.47;1.63;;;17.90;96.60;;;;;;5030891;28;20055;-69
2022/06/20 07:42:27;;;;;;;5.82;2.05;;;18.10;96.60;;;;;;5048685;28;20065;-68
2022/06/20 07:45:02;;;;;;;8.07;2.17;;;18.00;96.10;;;;;;5030761;28;20037;-69
2022/06/20 07:47:36;;;;;;;6.68;1.60;;;17.80;95.10;;;;;;5049209;28;20029;-69
2022/06/20 07:50:11;;;;;;;6.97;2.03;;;17.60;96.00;;;;;;5036221;28;20056;-68
2022/06/20 07:52:52;;;;;;;5.25;1.88;;;17.40;96.40;;;;;;5034722;28;20052;-68
2022/06/20 07:55:22;;;;;;;8.77;1.95;;;17.30;96.60;;;;;;5028521;28;20463;-69
2022/06/20 07:57:57;;;;;;;6.22;1.33;;;17.50;97.50;;;;;;5034788;28;20095;-68
2022/06/20 08:00:28;;;;;;;5.97;1.40;;;17.70;96.20;;;;;;5050283;28;20112;-68
2022/06/20 08:03:07;;;;;;;5.72;1.20;;;17.80;94.60;;;;;;5034464;28;20087;-68
2022/06/20 08:05:45;;;;;;;9.38;1.38;;;17.60;92.50;;;;;;5031074;28;20395;-69
2022/06/20 08:08:27;;;;;;;6.88;1.60;;;17.50;93.20;;;;;;5053022;28;20104;-69
2022/06/20 08:11:03;;;;;;;8.18;1.90;;;17.70;92.10;;;;;;5034955;28;20107;-68
2022/06/20 08:14:02;;;;;;;7.07;1.88;;;18.10;92.10;;;;;;5052071;28;20124;-68
2022/06/20 08:16:29;;;;;;;4.50;1.45;;;18.40;94.30;;;;;;5033678;28;20056;-69
2022/06/20 08:18:55;;;;;;;7.28;1.60;;;18.90;93.10;;;;;;5033577;28;20056;-69
2022/06/20 08:21:28;;;;;;;7.03;1.55;;;19.40;92.50;;;;;;5035818;28;20408;-69
2022/06/20 08:24:03;;;;;;;8.30;1.67;;;19.50;90.40;;;;;;5029029;28;20056;-69
2022/06/20 08:26:35;;;;;;;7.60;2.05;;;19.30;89.50;;;;;;5053847;28;20044;-69
2022/06/20 08:29:08;;;;;;;8.80;2.00;;;19.10;90.90;;;;;;5052760;28;20037;-69
2022/06/20 08:31:39;;;;;;;6.35;1.30;;;19.30;90.80;;;;;;5053429;28;20033;-69
2022/06/20 08:34:11;;;;;;;5.25;1.48;;;19.20;90.30;;;;;;5050960;28;20457;-69
2022/06/20 08:36:48;;;;;;;7.35;1.42;;;19.00;88.40;;;;;;5053103;28;20048;-69
2022/06/20 08:39:27;;;;;;;5.95;1.52;;;19.40;88.30;;;;;;5049992;28;20036;-69
2022/06/20 08:42:05;;;;;;;6.35;1.70;;;19.80;88.00;;;;;;5031979;28;20894;-69
2022/06/20 08:45:18;;;;;;;5.35;1.42;;;19.90;87.30;;;;;;5051766;28;20037;-70
2022/06/20 08:48:16;;;;;;;5.35;1.08;;;19.70;78.90;;;;;;5032797;28;20044;-69
2022/06/20 08:51:05;;;;;;;8.25;1.67;;;19.20;83.80;;;;;;5052915;28;20473;-69
2022/06/20 08:54:01;;;;;;;6.47;1.52;;;19.00;86.10;;;;;;5042763;28;20128;-69
2022/06/20 08:56:39;;;;;;;6.32;1.65;;;19.10;88.50;;;;;;5051179;28;20068;-69
2022/06/20 08:59:41;;;;;;;7.15;1.63;;;19.50;88.60;;;;;;5051601;28;20050;-69
2022/06/20 09:02:18;;;;;;;6.72;1.30;;;19.90;86.30;;;;;;5049640;28;20477;-70
2022/06/20 09:04:50;;;;;;;4.07;1.02;;;20.40;83.90;;;;;;5050090;28;20041;-69
2022/06/20 09:07:28;;;;;;;5.43;1.20;;;20.70;80.20;;;;;;5047598;28;20077;-70
2022/06/20 09:10:20;;;;;;;3.65;0.90;;;21.20;78.30;;;;;;5046608;28;20083;-70
2022/06/20 09:13:09;;;;;;;4.18;1.02;;;21.20;75.40;;;;;;5042930;28;20053;-70
2022/06/20 09:15:48;;;;;;;3.42;0.60;;;21.20;70.10;;;;;;5030732;28;20084;-70
2022/06/20 09:18:35;;;;;;;3.85;0.68;;;21.30;72.30;;;;;;5012480;28;20443;-70
2022/06/20 09:21:33;;;;;;;3.13;0.40;;;21.50;68.20;;;;;;5049300;28;20101;-70
2022/06/20 09:24:38;;;;;;;4.45;0.90;;;21.50;64.40;;;;;;5031488;28;20058;-69
2022/06/20 09:27:08;;;;;;;;;;;21.50;66.70;;;;;;5050623;28;20099;-69
2022/06/20 09:30:02;;;;;;;3.05;0.70;;;21.10;67.90;;;;;;5047897;28;19923;-69
2022/06/20 09:32:53;;;;;;;3.78;0.90;;;20.50;70.50;;;;;;5050438;28;20094;-70
2022/06/20 09:35:27;;;;;;;3.72;0.70;;;20.00;70.10;;;;;;5030762;28;20099;-69
2022/06/20 09:38:01;;;;;;;2.08;0.45;;;19.80;73.50;;;;;;5029635;28;20060;-70
2022/06/20 09:40:52;;;;;;;2.83;0.65;;;19.90;71.80;;;;;;5031039;28;20123;-70
2022/06/20 09:43:35;;;;;;;3.47;0.70;;;20.20;67.90;;;;;;5029167;28;20076;-70
2022/06/20 09:46:13;;;;;;;4.85;0.80;;;20.40;68.30;;;;;;5049772;28;20049;-69
2022/06/20 09:48:57;;;;;;;2.63;0.80;;;20.50;67.80;;;;;;5029549;28;20095;-70
2022/06/20 09:51:47;;;;;;;4.65;0.88;;;20.30;68.10;;;;;;5051061;28;20443;-69
2022/06/20 09:54:28;;;;;;;4.47;1.10;;;20.00;68.90;;;;;;5030735;28;20048;-69
2022/06/20 09:57:02;;;;;;;5.13;1.00;;;19.60;70.70;;;;;;5049782;28;20047;-69
2022/06/20 09:59:31;;;;;;;;;;;19.50;72.90;;;;;;5046003;28;20048;-70
2022/06/20 10:02:21;;;;;;;4.00;1.27;;;19.70;74.70;;;;;;5048314;28;19927;-69
2022/06/20 10:05:18;;;;;;;5.22;1.05;;;19.90;73.30;;;;;;5050563;28;20068;-69
2022/06/20 10:07:53;;;;;;;5.65;1.52;;;20.00;73.60;;;;;;5047537;28;20473;-69
2022/06/20 10:10:34;;;;;;;3.00;1.02;;;19.80;74.50;;;;;;5031680;28;20588;-70
2022/06/20 10:13:10;;;;;;;5.95;1.10;;;20.10;73.80;;;;;;5049038;28;20040;-69
2022/06/20 10:16:07;;;;;;;3.95;1.30;;;20.40;71.00;;;;;;5030383;28;20044;-69
2022/06/20 10:18:39;;;;;;;5.72;1.20;;;20.60;71.80;;;;;;5045826;28;20039;-69
2022/06/20 10:21:10;;;;;;;5.90;1.20;;;20.80;73.10;;;;;;5032765;28;20103;-69
2022/06/20 10:24:17;;;;;;;4.80;1.00;;;21.10;70.20;;;;;;5049861;28;20045;-71
2022/06/20 10:27:00;;;;;;;4.53;1.23;;;21.40;66.20;;;;;;5048315;28;20045;-70
2022/06/20 10:29:57;;;;;;;5.83;1.40;;;21.30;67.00;;;;;;5046302;28;20430;-70
2022/06/20 10:33:06;;;;;;;6.43;1.30;;;20.80;68.60;;;;;;5032931;28;20044;-70
2022/06/20 10:35:42;;;;;;;4.07;1.15;;;20.50;69.40;;;;;;5048996;28;20045;-70
2022/06/20 10:38:37;;;;;;;6.85;1.10;;;20.40;70.80;;;;;;5027975;28;20396;-70
2022/06/20 10:41:15;;;;;;;5.80;1.30;;;20.30;70.80;;;;;;5003780;28;20566;-70
2022/06/20 10:44:17;;;;;;;5.47;0.90;;;20.30;71.10;;;;;;5044367;28;20033;-70
2022/06/20 10:46:51;;;;;;;3.60;0.70;;;20.70;70.20;;;;;;5048893;28;20101;-70
2022/06/20 10:49:49;;;;;;;4.80;0.90;;;21.10;67.70;;;;;;5031011;28;20041;-70
2022/06/20 10:52:36;;;;;;;6.18;1.60;;;21.40;67.70;;;;;;5028485;28;20056;-70
2022/06/20 10:55:25;;;;;;;4.65;1.02;;;21.30;66.10;;;;;;5028144;28;20053;-70
2022/06/20 10:58:06;;;;;;;2.58;0.68;;;21.30;68.20;;;;;;5030056;28;20563;-70
2022/06/20 11:00:38;;;;;;;6.75;0.98;;;21.40;62.60;;;;;;5030784;28;20115;-70
2022/06/20 11:03:42;;;;;;;3.72;0.60;;;21.30;65.10;;;;;;5045471;28;20059;-70
2022/06/20 11:06:40;;;;;;;5.10;0.80;;;21.40;64.30;;;;;;4916342;29;20055;-70
2022/06/20 11:09:17;;;;;;;5.32;0.65;;;21.30;65.20;;;;;;5037992;28;20068;-70
2022/06/20 11:12:01;;;;;;;3.20;0.65;;;21.70;65.00;;;;;;5045352;28;20132;-70
2022/06/20 11:14:26;;;;;;;;;;;21.40;58.70;;;;;;5026421;28;20067;-70
2022/06/20 11:17:19;;;;;;;2.22;0.60;;;21.60;61.50;;;;;;5031623;28;19916;-70
2022/06/20 11:20:08;;;;;;;2.95;0.60;;;21.80;61.30;;;;;;5049265;28;20087;-69
2022/06/20 11:22:43;;;;;;;3.08;0.90;;;21.60;61.00;;;;;;5031887;28;20056;-70
2022/06/20 11:25:24;;;;;;;4.47;0.70;;;21.00;63.70;;;;;;5013271;28;20076;-70
2022/06/20 11:28:08;;;;;;;5.68;1.23;;;20.50;64.70;;;;;;5027404;28;20417;-70
2022/06/20 11:30:37;;;;;;;4.30;0.90;;;20.30;68.00;;;;;;5031115;28;20045;-70
2022/06/20 11:33:10;;;;;;;4.15;0.90;;;20.50;66.50;;;;;;5009228;28;20764;-70
2022/06/20 11:35:55;;;;;;;4.07;0.60;;;20.90;63.50;;;;;;5030306;28;20449;-70
2022/06/20 11:38:42;;;;;;;5.72;0.90;;;21.40;61.40;;;;;;5046324;28;20036;-70
2022/06/20 11:41:16;;;;;;;5.05;1.08;;;22.00;60.30;;;;;;5029404;28;20044;-70
2022/06/20 11:44:06;;;;;;;5.70;0.60;;;22.10;60.70;;;;;;5031736;28;20496;-70
2022/06/20 11:46:57;;;;;;;2.92;0.70;;;22.60;58.40;;;;;;5028496;28;20213;-70
2022/06/20 11:49:32;;;;;;;5.10;0.80;;;23.00;56.00;;;;;;5028266;28;20341;-71
2022/06/20 11:52:41;;;;;;;4.72;0.95;;;23.20;56.40;;;;;;5048620;28;20041;-71
2022/06/20 11:55:28;;;;;;;5.47;1.20;;;23.00;56.20;;;;;;5027790;28;20489;-70
2022/06/20 11:58:05;;;;;;;4.25;1.02;;;21.90;58.40;;;;;;5048653;28;20045;-69
2022/06/20 12:00:44;;;;;;;7.10;1.35;;;21.40;61.00;;;;;;5046380;28;20041;-70
2022/06/20 12:03:33;;;;;;;4.50;0.73;;;21.40;61.60;;;;;;5029464;28;20057;-69
2022/06/20 12:06:16;;;;;;;2.60;0.82;;;21.70;61.00;;;;;;5047055;28;20044;-70
2022/06/20 12:08:55;;;;;;;4.68;1.08;;;21.70;62.00;;;;;;5029239;28;20487;-70
2022/06/20 12:11:30;;;;;;;6.85;1.20;;;21.60;63.50;;;;;;5049385;28;20063;-70
2022/06/20 12:14:14;;;;;;;2.88;0.50;;;21.70;63.50;;;;;;5028466;28;20048;-70
2022/06/20 12:16:39;;;;;;;;;;;21.70;59.50;;;;;;5032356;28;20123;-70
2022/06/20 12:25:22;;;;;;;4.90;1.08;;;22.30;61.10;;;;;;5048798;28;20055;-70
2022/06/20 12:27:49;;;;;;;5.25;1.08;;;22.50;60.90;;;;;;5030535;28;20040;-71
2022/06/20 12:30:16;;;;;;;2.80;0.80;;;22.70;61.50;;;;;;5028708;28;20120;-71
2022/06/20 12:32:45;;;;;;;3.53;0.80;;;23.00;59.30;;;;;;5050470;28;20584;-71
2022/06/20 12:35:41;;;;;;;4.10;1.10;;;23.10;59.40;;;;;;5048464;28;20460;-70
2022/06/20 12:38:23;;;;;;;3.30;1.02;;;22.80;58.20;;;;;;5033968;28;20040;-69
2022/06/20 12:40:53;;;;;;;5.78;1.00;;;22.30;59.20;;;;;;5033664;28;20048;-70
2022/06/20 12:43:25;;;;;;;4.22;1.02;;;22.10;60.80;;;;;;5033289;28;20128;-70
2022/06/20 12:46:04;;;;;;;4.78;1.08;;;22.10;61.30;;;;;;5049890;28;20040;-70
2022/06/20 12:48:44;;;;;;;4.25;1.20;;;21.70;60.70;;;;;;5034490;28;20134;-70
2022/06/20 12:51:21;;;;;;;3.47;0.77;;;21.20;62.40;;;;;;5050935;28;20111;-70
2022/06/20 12:53:55;;;;;;;4.18;0.85;;;21.10;63.10;;;;;;5051152;28;20048;-70
2022/06/20 12:56:45;;;;;;;4.28;0.65;;;21.00;62.70;;;;;;5035358;28;20056;-70
2022/06/20 12:59:47;;;;;;;3.80;0.70;;;20.90;61.40;;;;;;5030867;28;20110;-66
2022/06/20 13:02:37;;;;;;;3.10;0.70;;;20.60;60.90;;;;;;5044069;28;20102;-66
2022/06/20 13:05:05;;;;;;;5.13;0.90;;;20.40;62.30;;;;;;5045600;28;20047;-67
2022/06/20 13:07:49;;;;;;;3.70;0.70;;;20.80;64.10;;;;;;5051287;28;20128;-66
2022/06/20 13:10:30;;;;;;;5.32;0.95;;;21.30;61.10;;;;;;5046423;28;20040;-66
2022/06/20 13:13:16;;;;;;;3.97;0.90;;;21.50;59.30;;;;;;5050447;28;20071;-67
2022/06/20 13:15:53;;;;;;;5.10;0.88;;;21.30;60.10;;;;;;5050925;28;20052;-65
2022/06/20 13:18:43;;;;;;;2.20;0.95;;;20.60;61.70;;;;;;5052248;28;20056;-65
2022/06/20 13:21:30;;;;;;;4.68;0.82;;;20.10;62.10;;;;;;5049011;28;20044;-67
2022/06/20 13:24:14;;;;;;;6.13;0.70;;;19.70;63.50;;;;;;5027271;28;20083;-67
2022/06/20 13:27:21;;;;;;;4.57;1.08;;;20.00;65.10;;;;;;5049174;28;20469;-68
2022/06/20 13:29:50;;;;;;;3.92;0.70;;;20.30;65.00;;;;;;5034615;28;20044;-68
2022/06/20 13:32:32;;;;;;;5.03;0.50;;;20.20;63.60;;;;;;5047162;28;20124;-68
2022/06/20 13:35:18;;;;;;;3.28;0.65;;;20.10;62.90;;;;;;5013904;28;20167;-68
2022/06/20 13:38:10;;;;;;;3.95;0.93;;;20.20;64.50;;;;;;5048607;28;20048;-66
2022/06/20 13:40:53;;;;;;;1.73;0.70;;;20.20;65.40;;;;;;5047101;28;20515;-66
2022/06/20 13:43:25;;;;;;;3.42;0.70;;;20.10;63.40;;;;;;5043743;28;20103;-66
2022/06/20 13:46:22;;;;;;;3.33;1.23;;;20.00;64.30;;;;;;5046587;28;20437;-66
2022/06/20 13:49:23;;;;;;;4.22;0.93;;;20.10;65.20;;;;;;5039389;28;20053;-67
2022/06/20 13:51:58;;;;;;;2.70;0.70;;;20.20;65.30;;;;;;5029081;28;20049;-67
2022/06/20 13:54:49;;;;;;;3.05;0.55;;;20.20;63.00;;;;;;5047068;28;20056;-67
2022/06/20 13:57:30;;;;;;;3.67;1.08;;;20.00;62.70;;;;;;5047924;28;20143;-67
2022/06/20 14:00:07;;;;;;;5.55;0.90;;;19.90;64.80;;;;;;5045655;28;20387;-67
2022/06/20 14:02:40;;;;;;;5.30;0.77;;;20.00;65.60;;;;;;5032932;28;20045;-67